sensor_id;sensor_type;location;lat;lon;timestamp;P1;durP1;ratioP1;P2;durP2;ratioP2
71125;SDS011;58785;55.566;38.058;2023-03-05T00:02:07;3.60;;;0.33;;
71125;SDS011;58785;55.566;38.058;2023-03-05T00:04:32;2.67;;;0.20;;
71125;SDS011;58785;55.566;38.058;2023-03-05T00:06:58;3.00;;;0.50;;
71125;SDS011;58785;55.566;38.058;2023-03-05T00:09:24;2.00;;;0.20;;
71125;SDS011;58785;55.566;38.058;2023-03-05T00:11:49;2.53;;;0.38;;
71125;SDS011;58785;55.566;38.058;2023-03-05T00:14:15;2.93;;;0.40;;
71125;SDS011;58785;55.566;38.058;2023-03-05T00:16:41;2.05;;;0.38;;
71125;SDS011;58785;55.566;38.058;2023-03-05T00:19:06;2.83;;;0.40;;
71125;SDS011;58785;55.566;38.058;2023-03-05T00:21:36;2.45;;;0.30;;
71125;SDS011;58785;55.566;38.058;2023-03-05T00:24:04;1.73;;;0.30;;
71125;SDS011;58785;55.566;38.058;2023-03-05T00:26:34;2.28;;;0.50;;
71125;SDS011;58785;55.566;38.058;2023-03-05T00:29:01;2.00;;;0.60;;
71125;SDS011;58785;55.566;38.058;2023-03-05T00:31:28;2.33;;;0.50;;
71125;SDS011;58785;55.566;38.058;2023-03-05T00:33:56;3.40;;;0.55;;
71125;SDS011;58785;55.566;38.058;2023-03-05T00:36:23;3.35;;;0.30;;
71125;SDS011;58785;55.566;38.058;2023-03-05T00:38:49;2.00;;;0.38;;
71125;SDS011;58785;55.566;38.058;2023-03-05T00:41:16;2.53;;;0.37;;
71125;SDS011;58785;55.566;38.058;2023-03-05T00:43:41;2.33;;;0.30;;
71125;SDS011;58785;55.566;38.058;2023-03-05T00:46:07;4.10;;;0.50;;
71125;SDS011;58785;55.566;38.058;2023-03-05T00:48:33;2.17;;;0.20;;
71125;SDS011;58785;55.566;38.058;2023-03-05T00:50:59;1.73;;;0.30;;
71125;SDS011;58785;55.566;38.058;2023-03-05T00:53:24;2.80;;;0.40;;
71125;SDS011;58785;55.566;38.058;2023-03-05T00:55:50;1.77;;;0.30;;
71125;SDS011;58785;55.566;38.058;2023-03-05T00:58:15;2.33;;;0.45;;
71125;SDS011;58785;55.566;38.058;2023-03-05T01:00:41;1.73;;;0.20;;
71125;SDS011;58785;55.566;38.058;2023-03-05T01:03:07;1.85;;;0.38;;
71125;SDS011;58785;55.566;38.058;2023-03-05T01:05:33;2.10;;;0.50;;
71125;SDS011;58785;55.566;38.058;2023-03-05T01:07:58;2.72;;;0.30;;
71125;SDS011;58785;55.566;38.058;2023-03-05T01:10:24;2.45;;;0.38;;
71125;SDS011;58785;55.566;38.058;2023-03-05T01:12:54;1.67;;;0.27;;
71125;SDS011;58785;55.566;38.058;2023-03-05T01:15:22;1.63;;;0.20;;
71125;SDS011;58785;55.566;38.058;2023-03-05T01:17:48;2.97;;;0.38;;
71125;SDS011;58785;55.566;38.058;2023-03-05T01:20:14;1.77;;;0.30;;
71125;SDS011;58785;55.566;38.058;2023-03-05T01:22:42;5.05;;;0.50;;
71125;SDS011;58785;55.566;38.058;2023-03-05T01:25:08;2.08;;;0.32;;
71125;SDS011;58785;55.566;38.058;2023-03-05T01:27:34;2.50;;;0.40;;
71125;SDS011;58785;55.566;38.058;2023-03-05T01:30:00;3.97;;;0.50;;
71125;SDS011;58785;55.566;38.058;2023-03-05T01:32:26;4.40;;;0.30;;
71125;SDS011;58785;55.566;38.058;2023-03-05T01:34:51;2.77;;;0.30;;
71125;SDS011;58785;55.566;38.058;2023-03-05T01:37:17;2.23;;;0.40;;
71125;SDS011;58785;55.566;38.058;2023-03-05T01:39:42;1.80;;;0.30;;
71125;SDS011;58785;55.566;38.058;2023-03-05T01:42:08;2.27;;;0.40;;
71125;SDS011;58785;55.566;38.058;2023-03-05T01:44:34;1.55;;;0.30;;
71125;SDS011;58785;55.566;38.058;2023-03-05T01:46:59;1.73;;;0.23;;
71125;SDS011;58785;55.566;38.058;2023-03-05T01:49:26;3.55;;;0.40;;
71125;SDS011;58785;55.566;38.058;2023-03-05T01:51:59;2.53;;;0.40;;
71125;SDS011;58785;55.566;38.058;2023-03-05T01:54:38;1.33;;;0.30;;
71125;SDS011;58785;55.566;38.058;2023-03-05T01:57:19;2.45;;;0.20;;
71125;SDS011;58785;55.566;38.058;2023-03-05T01:59:48;1.08;;;0.10;;
71125;SDS011;58785;55.566;38.058;2023-03-05T02:02:18;2.05;;;0.28;;
71125;SDS011;58785;55.566;38.058;2023-03-05T02:05:07;2.17;;;0.23;;
71125;SDS011;58785;55.566;38.058;2023-03-05T02:07:35;1.15;;;0.15;;
71125;SDS011;58785;55.566;38.058;2023-03-05T02:10:47;1.67;;;0.30;;
71125;SDS011;58785;55.566;38.058;2023-03-05T02:12:55;1.90;;;0.20;;
71125;SDS011;58785;55.566;38.058;2023-03-05T02:15:23;1.92;;;0.22;;
71125;SDS011;58785;55.566;38.058;2023-03-05T02:17:49;4.07;;;0.20;;
71125;SDS011;58785;55.566;38.058;2023-03-05T02:20:16;2.42;;;0.28;;
71125;SDS011;58785;55.566;38.058;2023-03-05T02:22:45;1.25;;;0.20;;
71125;SDS011;58785;55.566;38.058;2023-03-05T02:25:24;2.50;;;0.20;;
71125;SDS011;58785;55.566;38.058;2023-03-05T02:30:40;1.63;;;0.15;;
71125;SDS011;58785;55.566;38.058;2023-03-05T02:33:06;1.58;;;0.30;;
71125;SDS011;58785;55.566;38.058;2023-03-05T02:35:32;1.23;;;0.13;;
71125;SDS011;58785;55.566;38.058;2023-03-05T02:37:58;1.77;;;0.20;;
71125;SDS011;58785;55.566;38.058;2023-03-05T02:40:23;2.63;;;0.17;;
71125;SDS011;58785;55.566;38.058;2023-03-05T02:42:49;2.00;;;0.22;;
71125;SDS011;58785;55.566;38.058;2023-03-05T02:45:15;4.50;;;0.30;;
71125;SDS011;58785;55.566;38.058;2023-03-05T02:47:41;1.20;;;0.17;;
71125;SDS011;58785;55.566;38.058;2023-03-05T02:50:07;2.17;;;0.40;;
71125;SDS011;58785;55.566;38.058;2023-03-05T02:52:35;1.40;;;0.20;;
71125;SDS011;58785;55.566;38.058;2023-03-05T02:55:01;1.45;;;0.20;;
71125;SDS011;58785;55.566;38.058;2023-03-05T02:57:28;3.00;;;0.20;;
71125;SDS011;58785;55.566;38.058;2023-03-05T02:59:54;2.13;;;0.15;;
71125;SDS011;58785;55.566;38.058;2023-03-05T03:02:19;2.13;;;0.30;;
71125;SDS011;58785;55.566;38.058;2023-03-05T03:04:45;2.40;;;0.22;;
71125;SDS011;58785;55.566;38.058;2023-03-05T03:07:11;2.47;;;0.30;;
71125;SDS011;58785;55.566;38.058;2023-03-05T03:09:37;1.40;;;0.20;;
71125;SDS011;58785;55.566;38.058;2023-03-05T03:12:04;3.88;;;0.30;;
71125;SDS011;58785;55.566;38.058;2023-03-05T03:14:34;2.30;;;0.20;;
71125;SDS011;58785;55.566;38.058;2023-03-05T03:17:06;1.48;;;0.20;;
71125;SDS011;58785;55.566;38.058;2023-03-05T03:19:34;2.13;;;0.47;;
71125;SDS011;58785;55.566;38.058;2023-03-05T03:22:00;2.00;;;0.30;;
71125;SDS011;58785;55.566;38.058;2023-03-05T03:24:26;1.80;;;0.40;;
71125;SDS011;58785;55.566;38.058;2023-03-05T03:26:54;1.90;;;0.30;;
71125;SDS011;58785;55.566;38.058;2023-03-05T03:29:19;3.05;;;0.60;;
71125;SDS011;58785;55.566;38.058;2023-03-05T03:31:45;2.10;;;0.30;;
71125;SDS011;58785;55.566;38.058;2023-03-05T03:34:11;1.95;;;0.30;;
71125;SDS011;58785;55.566;38.058;2023-03-05T03:36:39;3.00;;;0.27;;
71125;SDS011;58785;55.566;38.058;2023-03-05T03:39:04;1.77;;;0.20;;
71125;SDS011;58785;55.566;38.058;2023-03-05T03:41:30;2.20;;;0.23;;
71125;SDS011;58785;55.566;38.058;2023-03-05T03:43:57;1.95;;;0.30;;
71125;SDS011;58785;55.566;38.058;2023-03-05T03:46:22;1.60;;;0.20;;
71125;SDS011;58785;55.566;38.058;2023-03-05T03:48:49;3.20;;;0.40;;
71125;SDS011;58785;55.566;38.058;2023-03-05T03:51:15;2.53;;;0.30;;
71125;SDS011;58785;55.566;38.058;2023-03-05T03:53:41;1.23;;;0.20;;
71125;SDS011;58785;55.566;38.058;2023-03-05T03:56:07;2.20;;;0.30;;
71125;SDS011;58785;55.566;38.058;2023-03-05T03:58:32;3.40;;;0.40;;
71125;SDS011;58785;55.566;38.058;2023-03-05T04:00:58;4.88;;;0.40;;
71125;SDS011;58785;55.566;38.058;2023-03-05T04:03:23;3.03;;;0.63;;
71125;SDS011;58785;55.566;38.058;2023-03-05T04:05:49;2.33;;;0.30;;
71125;SDS011;58785;55.566;38.058;2023-03-05T04:08:15;1.95;;;0.20;;
71125;SDS011;58785;55.566;38.058;2023-03-05T04:10:40;1.90;;;0.37;;
71125;SDS011;58785;55.566;38.058;2023-03-05T04:13:06;1.92;;;0.30;;
71125;SDS011;58785;55.566;38.058;2023-03-05T04:15:32;3.60;;;0.50;;
71125;SDS011;58785;55.566;38.058;2023-03-05T04:17:57;2.35;;;0.30;;
71125;SDS011;58785;55.566;38.058;2023-03-05T04:20:23;1.63;;;0.30;;
71125;SDS011;58785;55.566;38.058;2023-03-05T04:22:49;2.47;;;0.40;;
71125;SDS011;58785;55.566;38.058;2023-03-05T04:25:15;1.85;;;0.30;;
71125;SDS011;58785;55.566;38.058;2023-03-05T04:27:41;3.57;;;0.60;;
71125;SDS011;58785;55.566;38.058;2023-03-05T04:33:46;1.88;;;0.45;;
71125;SDS011;58785;55.566;38.058;2023-03-05T04:36:12;2.97;;;0.50;;
71125;SDS011;58785;55.566;38.058;2023-03-05T04:38:38;2.73;;;0.40;;
71125;SDS011;58785;55.566;38.058;2023-03-05T04:41:03;4.75;;;0.40;;
71125;SDS011;58785;55.566;38.058;2023-03-05T04:43:29;3.23;;;0.40;;
71125;SDS011;58785;55.566;38.058;2023-03-05T04:45:54;2.10;;;0.30;;
71125;SDS011;58785;55.566;38.058;2023-03-05T04:48:20;3.15;;;0.65;;
71125;SDS011;58785;55.566;38.058;2023-03-05T04:50:46;3.65;;;0.50;;
71125;SDS011;58785;55.566;38.058;2023-03-05T04:53:12;3.50;;;0.50;;
71125;SDS011;58785;55.566;38.058;2023-03-05T04:55:38;2.35;;;0.40;;
71125;SDS011;58785;55.566;38.058;2023-03-05T04:58:03;2.77;;;0.50;;
71125;SDS011;58785;55.566;38.058;2023-03-05T05:00:29;2.35;;;0.40;;
71125;SDS011;58785;55.566;38.058;2023-03-05T05:02:54;3.73;;;0.50;;
71125;SDS011;58785;55.566;38.058;2023-03-05T05:05:21;2.67;;;0.40;;
71125;SDS011;58785;55.566;38.058;2023-03-05T05:07:48;4.38;;;0.40;;
71125;SDS011;58785;55.566;38.058;2023-03-05T05:10:14;3.10;;;0.40;;
71125;SDS011;58785;55.566;38.058;2023-03-05T05:12:40;3.53;;;0.57;;
71125;SDS011;58785;55.566;38.058;2023-03-05T05:15:07;3.23;;;0.37;;
71125;SDS011;58785;55.566;38.058;2023-03-05T05:17:33;2.33;;;0.43;;
71125;SDS011;58785;55.566;38.058;2023-03-05T05:20:00;3.78;;;0.57;;
71125;SDS011;58785;55.566;38.058;2023-03-05T05:22:27;1.88;;;0.30;;
71125;SDS011;58785;55.566;38.058;2023-03-05T05:24:54;1.75;;;0.30;;
71125;SDS011;58785;55.566;38.058;2023-03-05T05:27:20;2.23;;;0.50;;
71125;SDS011;58785;55.566;38.058;2023-03-05T05:29:46;2.65;;;0.40;;
71125;SDS011;58785;55.566;38.058;2023-03-05T05:32:18;3.05;;;0.60;;
71125;SDS011;58785;55.566;38.058;2023-03-05T05:34:48;3.28;;;0.50;;
71125;SDS011;58785;55.566;38.058;2023-03-05T05:37:18;5.80;;;0.40;;
71125;SDS011;58785;55.566;38.058;2023-03-05T05:39:44;2.50;;;0.30;;
71125;SDS011;58785;55.566;38.058;2023-03-05T05:42:14;3.15;;;0.60;;
71125;SDS011;58785;55.566;38.058;2023-03-05T05:44:44;2.00;;;0.20;;
71125;SDS011;58785;55.566;38.058;2023-03-05T05:47:12;5.37;;;0.57;;
71125;SDS011;58785;55.566;38.058;2023-03-05T05:49:39;3.08;;;0.65;;
71125;SDS011;58785;55.566;38.058;2023-03-05T05:52:05;2.22;;;0.40;;
71125;SDS011;58785;55.566;38.058;2023-03-05T05:54:30;2.50;;;0.40;;
71125;SDS011;58785;55.566;38.058;2023-03-05T05:56:56;3.17;;;0.40;;
71125;SDS011;58785;55.566;38.058;2023-03-05T05:59:22;2.25;;;0.50;;
71125;SDS011;58785;55.566;38.058;2023-03-05T06:01:48;3.97;;;0.40;;
71125;SDS011;58785;55.566;38.058;2023-03-05T06:04:13;2.20;;;0.40;;
71125;SDS011;58785;55.566;38.058;2023-03-05T06:06:39;1.90;;;0.37;;
71125;SDS011;58785;55.566;38.058;2023-03-05T06:09:05;2.67;;;0.32;;
71125;SDS011;58785;55.566;38.058;2023-03-05T06:11:30;3.97;;;0.50;;
71125;SDS011;58785;55.566;38.058;2023-03-05T06:13:58;2.40;;;0.55;;
71125;SDS011;58785;55.566;38.058;2023-03-05T06:16:24;5.10;;;0.65;;
71125;SDS011;58785;55.566;38.058;2023-03-05T06:18:50;2.10;;;0.32;;
71125;SDS011;58785;55.566;38.058;2023-03-05T06:21:17;4.18;;;0.73;;
71125;SDS011;58785;55.566;38.058;2023-03-05T06:23:44;4.63;;;0.50;;
71125;SDS011;58785;55.566;38.058;2023-03-05T06:26:12;2.92;;;0.65;;
71125;SDS011;58785;55.566;38.058;2023-03-05T06:28:39;5.97;;;0.60;;
71125;SDS011;58785;55.566;38.058;2023-03-05T06:31:06;3.90;;;0.80;;
71125;SDS011;58785;55.566;38.058;2023-03-05T06:33:36;2.45;;;0.45;;
71125;SDS011;58785;55.566;38.058;2023-03-05T06:36:03;3.05;;;0.60;;
71125;SDS011;58785;55.566;38.058;2023-03-05T06:38:30;3.35;;;0.65;;
71125;SDS011;58785;55.566;38.058;2023-03-05T06:40:59;3.63;;;0.80;;
71125;SDS011;58785;55.566;38.058;2023-03-05T06:43:26;3.67;;;0.55;;
71125;SDS011;58785;55.566;38.058;2023-03-05T06:46:51;3.63;;;0.55;;
71125;SDS011;58785;55.566;38.058;2023-03-05T06:48:46;4.30;;;0.80;;
71125;SDS011;58785;55.566;38.058;2023-03-05T06:51:15;3.20;;;0.65;;
71125;SDS011;58785;55.566;38.058;2023-03-05T06:53:48;4.33;;;0.90;;
71125;SDS011;58785;55.566;38.058;2023-03-05T06:56:14;4.13;;;1.00;;
71125;SDS011;58785;55.566;38.058;2023-03-05T06:58:42;4.03;;;0.80;;
71125;SDS011;58785;55.566;38.058;2023-03-05T07:01:08;3.30;;;0.52;;
71125;SDS011;58785;55.566;38.058;2023-03-05T07:03:34;3.50;;;0.60;;
71125;SDS011;58785;55.566;38.058;2023-03-05T07:06:02;7.95;;;1.35;;
71125;SDS011;58785;55.566;38.058;2023-03-05T07:08:28;5.30;;;1.15;;
71125;SDS011;58785;55.566;38.058;2023-03-05T07:10:54;4.87;;;1.10;;
71125;SDS011;58785;55.566;38.058;2023-03-05T07:13:20;3.53;;;0.60;;
71125;SDS011;58785;55.566;38.058;2023-03-05T07:15:46;4.25;;;0.75;;
71125;SDS011;58785;55.566;38.058;2023-03-05T07:18:12;2.87;;;0.60;;
71125;SDS011;58785;55.566;38.058;2023-03-05T07:20:38;3.90;;;0.80;;
71125;SDS011;58785;55.566;38.058;2023-03-05T07:23:03;4.43;;;0.80;;
71125;SDS011;58785;55.566;38.058;2023-03-05T07:25:29;5.05;;;1.08;;
71125;SDS011;58785;55.566;38.058;2023-03-05T07:27:56;3.90;;;0.60;;
71125;SDS011;58785;55.566;38.058;2023-03-05T07:30:22;2.93;;;0.50;;
71125;SDS011;58785;55.566;38.058;2023-03-05T07:32:48;2.85;;;0.50;;
71125;SDS011;58785;55.566;38.058;2023-03-05T07:35:13;4.00;;;0.60;;
71125;SDS011;58785;55.566;38.058;2023-03-05T07:37:39;4.43;;;0.43;;
71125;SDS011;58785;55.566;38.058;2023-03-05T07:40:05;4.90;;;0.57;;
71125;SDS011;58785;55.566;38.058;2023-03-05T07:42:31;2.88;;;0.90;;
71125;SDS011;58785;55.566;38.058;2023-03-05T07:44:57;3.60;;;0.65;;
71125;SDS011;58785;55.566;38.058;2023-03-05T07:47:23;3.50;;;0.50;;
71125;SDS011;58785;55.566;38.058;2023-03-05T07:49:49;5.72;;;0.70;;
71125;SDS011;58785;55.566;38.058;2023-03-05T07:52:14;2.65;;;0.52;;
71125;SDS011;58785;55.566;38.058;2023-03-05T07:54:40;2.67;;;0.60;;
71125;SDS011;58785;55.566;38.058;2023-03-05T07:57:06;4.03;;;0.60;;
71125;SDS011;58785;55.566;38.058;2023-03-05T07:59:32;3.27;;;0.87;;
71125;SDS011;58785;55.566;38.058;2023-03-05T08:01:58;3.35;;;0.70;;
71125;SDS011;58785;55.566;38.058;2023-03-05T08:04:24;4.38;;;0.70;;
71125;SDS011;58785;55.566;38.058;2023-03-05T08:06:50;3.67;;;0.63;;
71125;SDS011;58785;55.566;38.058;2023-03-05T08:09:16;4.22;;;0.68;;
71125;SDS011;58785;55.566;38.058;2023-03-05T08:11:43;5.05;;;0.95;;
71125;SDS011;58785;55.566;38.058;2023-03-05T08:14:09;3.75;;;0.60;;
71125;SDS011;58785;55.566;38.058;2023-03-05T08:16:37;6.25;;;0.93;;
71125;SDS011;58785;55.566;38.058;2023-03-05T08:19:04;2.50;;;0.67;;
71125;SDS011;58785;55.566;38.058;2023-03-05T08:21:31;4.20;;;0.82;;
71125;SDS011;58785;55.566;38.058;2023-03-05T08:24:01;4.63;;;0.80;;
71125;SDS011;58785;55.566;38.058;2023-03-05T08:26:28;2.83;;;0.55;;
71125;SDS011;58785;55.566;38.058;2023-03-05T08:28:55;3.92;;;0.70;;
71125;SDS011;58785;55.566;38.058;2023-03-05T08:31:22;4.03;;;0.90;;
71125;SDS011;58785;55.566;38.058;2023-03-05T08:33:49;4.90;;;0.98;;
71125;SDS011;58785;55.566;38.058;2023-03-05T08:36:17;5.25;;;0.93;;
71125;SDS011;58785;55.566;38.058;2023-03-05T08:38:42;4.45;;;1.23;;
71125;SDS011;58785;55.566;38.058;2023-03-05T08:41:11;3.05;;;0.73;;
71125;SDS011;58785;55.566;38.058;2023-03-05T08:43:37;3.83;;;0.87;;
71125;SDS011;58785;55.566;38.058;2023-03-05T08:49:43;3.45;;;0.90;;
71125;SDS011;58785;55.566;38.058;2023-03-05T08:52:09;5.15;;;1.23;;
71125;SDS011;58785;55.566;38.058;2023-03-05T08:54:35;5.20;;;1.30;;
71125;SDS011;58785;55.566;38.058;2023-03-05T08:57:02;5.00;;;1.02;;
71125;SDS011;58785;55.566;38.058;2023-03-05T08:59:28;5.03;;;0.90;;
71125;SDS011;58785;55.566;38.058;2023-03-05T09:01:54;4.20;;;0.98;;
71125;SDS011;58785;55.566;38.058;2023-03-05T09:04:20;6.60;;;1.30;;
71125;SDS011;58785;55.566;38.058;2023-03-05T09:06:46;6.22;;;1.52;;
71125;SDS011;58785;55.566;38.058;2023-03-05T09:09:11;4.77;;;1.00;;
71125;SDS011;58785;55.566;38.058;2023-03-05T09:11:38;5.32;;;1.23;;
71125;SDS011;58785;55.566;38.058;2023-03-05T09:14:05;5.45;;;1.40;;
71125;SDS011;58785;55.566;38.058;2023-03-05T09:16:31;6.53;;;1.27;;
71125;SDS011;58785;55.566;38.058;2023-03-05T09:18:58;4.70;;;0.98;;
71125;SDS011;58785;55.566;38.058;2023-03-05T09:21:24;6.22;;;1.45;;
71125;SDS011;58785;55.566;38.058;2023-03-05T09:23:50;5.72;;;1.40;;
71125;SDS011;58785;55.566;38.058;2023-03-05T09:26:16;4.47;;;0.93;;
71125;SDS011;58785;55.566;38.058;2023-03-05T09:28:46;6.60;;;1.40;;
71125;SDS011;58785;55.566;38.058;2023-03-05T09:31:12;4.72;;;0.93;;
71125;SDS011;58785;55.566;38.058;2023-03-05T09:33:38;5.95;;;1.50;;
71125;SDS011;58785;55.566;38.058;2023-03-05T09:36:05;7.87;;;1.63;;
71125;SDS011;58785;55.566;38.058;2023-03-05T09:38:40;4.97;;;1.37;;
71125;SDS011;58785;55.566;38.058;2023-03-05T09:41:12;9.10;;;1.52;;
71125;SDS011;58785;55.566;38.058;2023-03-05T09:46:56;6.43;;;1.70;;
71125;SDS011;58785;55.566;38.058;2023-03-05T09:49:38;6.28;;;1.55;;
71125;SDS011;58785;55.566;38.058;2023-03-05T09:54:56;6.22;;;1.60;;
71125;SDS011;58785;55.566;38.058;2023-03-05T09:57:37;5.82;;;1.70;;
71125;SDS011;58785;55.566;38.058;2023-03-05T10:03:01;6.28;;;1.67;;
71125;SDS011;58785;55.566;38.058;2023-03-05T10:08:41;6.78;;;1.90;;
71125;SDS011;58785;55.566;38.058;2023-03-05T10:11:09;6.07;;;2.05;;
71125;SDS011;58785;55.566;38.058;2023-03-05T10:14:17;5.77;;;2.07;;
71125;SDS011;58785;55.566;38.058;2023-03-05T10:22:53;8.43;;;2.35;;
71125;SDS011;58785;55.566;38.058;2023-03-05T10:28:16;9.23;;;2.70;;
71125;SDS011;58785;55.566;38.058;2023-03-05T10:39:16;10.00;;;3.10;;
71125;SDS011;58785;55.566;38.058;2023-03-05T10:42:06;6.17;;;2.27;;
71125;SDS011;58785;55.566;38.058;2023-03-05T10:47:10;7.00;;;2.57;;
71125;SDS011;58785;55.566;38.058;2023-03-05T10:49:44;8.40;;;3.00;;
71125;SDS011;58785;55.566;38.058;2023-03-05T10:52:19;7.25;;;2.78;;
71125;SDS011;58785;55.566;38.058;2023-03-05T10:54:52;8.38;;;2.70;;
71125;SDS011;58785;55.566;38.058;2023-03-05T10:57:22;10.10;;;3.17;;
71125;SDS011;58785;55.566;38.058;2023-03-05T10:59:51;11.40;;;3.08;;
71125;SDS011;58785;55.566;38.058;2023-03-05T11:02:18;9.65;;;3.10;;
71125;SDS011;58785;55.566;38.058;2023-03-05T11:04:45;8.23;;;3.20;;
71125;SDS011;58785;55.566;38.058;2023-03-05T11:10:01;7.20;;;2.17;;
71125;SDS011;58785;55.566;38.058;2023-03-05T11:12:46;6.90;;;2.45;;
71125;SDS011;58785;55.566;38.058;2023-03-05T11:17:40;8.48;;;2.70;;
71125;SDS011;58785;55.566;38.058;2023-03-05T11:23:15;7.40;;;2.43;;
71125;SDS011;58785;55.566;38.058;2023-03-05T11:28:35;7.55;;;2.22;;
71125;SDS011;58785;55.566;38.058;2023-03-05T11:31:18;7.82;;;2.63;;
71125;SDS011;58785;55.566;38.058;2023-03-05T11:33:58;6.50;;;2.42;;
71125;SDS011;58785;55.566;38.058;2023-03-05T11:41:41;6.65;;;2.03;;
71125;SDS011;58785;55.566;38.058;2023-03-05T11:44:22;9.05;;;2.97;;
71125;SDS011;58785;55.566;38.058;2023-03-05T11:46:51;5.78;;;1.80;;
71125;SDS011;58785;55.566;38.058;2023-03-05T11:49:22;8.10;;;2.43;;
71125;SDS011;58785;55.566;38.058;2023-03-05T11:51:59;5.50;;;1.73;;
71125;SDS011;58785;55.566;38.058;2023-03-05T11:54:35;7.15;;;2.50;;
71125;SDS011;58785;55.566;38.058;2023-03-05T11:57:12;6.82;;;2.38;;
71125;SDS011;58785;55.566;38.058;2023-03-05T11:59:41;4.65;;;1.30;;
71125;SDS011;58785;55.566;38.058;2023-03-05T12:02:18;7.37;;;1.97;;
71125;SDS011;58785;55.566;38.058;2023-03-05T12:04:47;5.88;;;1.60;;
71125;SDS011;58785;55.566;38.058;2023-03-05T12:07:15;7.07;;;2.30;;
71125;SDS011;58785;55.566;38.058;2023-03-05T12:09:52;8.82;;;2.45;;
71125;SDS011;58785;55.566;38.058;2023-03-05T12:12:29;11.43;;;2.80;;
71125;SDS011;58785;55.566;38.058;2023-03-05T12:22:47;7.97;;;2.37;;
71125;SDS011;58785;55.566;38.058;2023-03-05T12:25:20;9.25;;;3.03;;
71125;SDS011;58785;55.566;38.058;2023-03-05T12:27:50;8.18;;;3.00;;
71125;SDS011;58785;55.566;38.058;2023-03-05T12:33:04;7.68;;;2.95;;
71125;SDS011;58785;55.566;38.058;2023-03-05T12:35:50;10.60;;;3.13;;
71125;SDS011;58785;55.566;38.058;2023-03-05T12:38:17;8.45;;;2.90;;
71125;SDS011;58785;55.566;38.058;2023-03-05T12:41:12;9.27;;;3.25;;
71125;SDS011;58785;55.566;38.058;2023-03-05T12:46:29;7.50;;;2.53;;
71125;SDS011;58785;55.566;38.058;2023-03-05T12:51:51;7.28;;;2.17;;
71125;SDS011;58785;55.566;38.058;2023-03-05T12:54:29;6.05;;;1.90;;
71125;SDS011;58785;55.566;38.058;2023-03-05T12:57:11;14.52;;;2.55;;
71125;SDS011;58785;55.566;38.058;2023-03-05T13:02:45;7.57;;;2.90;;
71125;SDS011;58785;55.566;38.058;2023-03-05T13:08:10;11.77;;;3.92;;
71125;SDS011;58785;55.566;38.058;2023-03-05T13:10:59;6.45;;;2.35;;
71125;SDS011;58785;55.566;38.058;2023-03-05T13:13:25;7.43;;;2.70;;
71125;SDS011;58785;55.566;38.058;2023-03-05T13:20:28;6.18;;;2.10;;
71125;SDS011;58785;55.566;38.058;2023-03-05T13:25:37;5.40;;;1.90;;
71125;SDS011;58785;55.566;38.058;2023-03-05T13:28:03;5.83;;;1.90;;
71125;SDS011;58785;55.566;38.058;2023-03-05T13:30:33;5.35;;;1.88;;
71125;SDS011;58785;55.566;38.058;2023-03-05T13:33:00;6.43;;;2.13;;
71125;SDS011;58785;55.566;38.058;2023-03-05T13:35:28;6.63;;;2.10;;
71125;SDS011;58785;55.566;38.058;2023-03-05T13:37:58;7.47;;;1.95;;
71125;SDS011;58785;55.566;38.058;2023-03-05T13:40:26;6.90;;;2.40;;
71125;SDS011;58785;55.566;38.058;2023-03-05T13:42:53;7.63;;;2.55;;
71125;SDS011;58785;55.566;38.058;2023-03-05T13:45:24;6.33;;;2.40;;
71125;SDS011;58785;55.566;38.058;2023-03-05T13:47:58;7.72;;;2.50;;
71125;SDS011;58785;55.566;38.058;2023-03-05T13:50:41;7.80;;;2.35;;
71125;SDS011;58785;55.566;38.058;2023-03-05T13:57:04;5.38;;;2.03;;
71125;SDS011;58785;55.566;38.058;2023-03-05T13:59:32;7.67;;;1.83;;
71125;SDS011;58785;55.566;38.058;2023-03-05T14:02:03;5.38;;;1.75;;
71125;SDS011;58785;55.566;38.058;2023-03-05T14:04:40;6.93;;;2.50;;
71125;SDS011;58785;55.566;38.058;2023-03-05T14:09:51;6.45;;;1.90;;
71125;SDS011;58785;55.566;38.058;2023-03-05T14:15:00;7.95;;;2.05;;
71125;SDS011;58785;55.566;38.058;2023-03-05T14:22:39;6.70;;;2.15;;
71125;SDS011;58785;55.566;38.058;2023-03-05T14:30:49;6.60;;;1.80;;
71125;SDS011;58785;55.566;38.058;2023-03-05T14:33:26;5.05;;;1.92;;
71125;SDS011;58785;55.566;38.058;2023-03-05T14:35:54;6.05;;;1.73;;
71125;SDS011;58785;55.566;38.058;2023-03-05T14:38:23;5.73;;;1.90;;
71125;SDS011;58785;55.566;38.058;2023-03-05T14:40:52;7.38;;;2.58;;
71125;SDS011;58785;55.566;38.058;2023-03-05T14:43:17;4.17;;;1.20;;
71125;SDS011;58785;55.566;38.058;2023-03-05T14:45:44;4.90;;;1.40;;
71125;SDS011;58785;55.566;38.058;2023-03-05T14:48:11;7.55;;;1.52;;
71125;SDS011;58785;55.566;38.058;2023-03-05T14:53:11;3.47;;;1.13;;
71125;SDS011;58785;55.566;38.058;2023-03-05T14:55:40;5.87;;;1.10;;
71125;SDS011;58785;55.566;38.058;2023-03-05T14:58:13;5.03;;;1.13;;
71125;SDS011;58785;55.566;38.058;2023-03-05T15:00:49;6.60;;;1.65;;
71125;SDS011;58785;55.566;38.058;2023-03-05T15:03:15;4.67;;;1.33;;
71125;SDS011;58785;55.566;38.058;2023-03-05T15:05:42;6.40;;;2.00;;
71125;SDS011;58785;55.566;38.058;2023-03-05T15:08:14;5.55;;;1.45;;
71125;SDS011;58785;55.566;38.058;2023-03-05T15:10:41;7.22;;;1.73;;
71125;SDS011;58785;55.566;38.058;2023-03-05T15:13:07;6.83;;;1.33;;
71125;SDS011;58785;55.566;38.058;2023-03-05T15:15:33;5.17;;;1.33;;
71125;SDS011;58785;55.566;38.058;2023-03-05T15:17:58;4.90;;;1.63;;
71125;SDS011;58785;55.566;38.058;2023-03-05T15:20:26;3.58;;;1.15;;
71125;SDS011;58785;55.566;38.058;2023-03-05T15:22:55;6.80;;;2.13;;
71125;SDS011;58785;55.566;38.058;2023-03-05T15:25:21;4.27;;;1.07;;
71125;SDS011;58785;55.566;38.058;2023-03-05T15:27:48;4.13;;;1.03;;
71125;SDS011;58785;55.566;38.058;2023-03-05T15:30:37;5.57;;;1.08;;
71125;SDS011;58785;55.566;38.058;2023-03-05T15:33:03;3.85;;;0.80;;
71125;SDS011;58785;55.566;38.058;2023-03-05T15:35:34;4.38;;;1.10;;
71125;SDS011;58785;55.566;38.058;2023-03-05T15:38:00;4.25;;;0.80;;
71125;SDS011;58785;55.566;38.058;2023-03-05T15:40:26;4.13;;;0.80;;
71125;SDS011;58785;55.566;38.058;2023-03-05T15:42:53;4.47;;;1.17;;
71125;SDS011;58785;55.566;38.058;2023-03-05T15:45:20;3.85;;;0.88;;
71125;SDS011;58785;55.566;38.058;2023-03-05T15:47:49;5.77;;;1.33;;
71125;SDS011;58785;55.566;38.058;2023-03-05T15:50:16;5.45;;;1.85;;
71125;SDS011;58785;55.566;38.058;2023-03-05T15:52:43;6.65;;;2.00;;
71125;SDS011;58785;55.566;38.058;2023-03-05T15:55:08;7.20;;;1.90;;
71125;SDS011;58785;55.566;38.058;2023-03-05T15:57:35;6.68;;;2.20;;
71125;SDS011;58785;55.566;38.058;2023-03-05T16:00:04;6.72;;;1.80;;
71125;SDS011;58785;55.566;38.058;2023-03-05T16:02:31;6.65;;;1.67;;
71125;SDS011;58785;55.566;38.058;2023-03-05T16:04:56;6.23;;;1.70;;
71125;SDS011;58785;55.566;38.058;2023-03-05T16:07:22;6.97;;;1.93;;
71125;SDS011;58785;55.566;38.058;2023-03-05T16:09:48;6.10;;;1.50;;
71125;SDS011;58785;55.566;38.058;2023-03-05T16:12:17;7.30;;;2.10;;
71125;SDS011;58785;55.566;38.058;2023-03-05T16:14:47;7.45;;;2.80;;
71125;SDS011;58785;55.566;38.058;2023-03-05T16:17:16;5.40;;;1.57;;
71125;SDS011;58785;55.566;38.058;2023-03-05T16:19:45;6.75;;;2.40;;
71125;SDS011;58785;55.566;38.058;2023-03-05T16:22:13;6.28;;;2.28;;
71125;SDS011;58785;55.566;38.058;2023-03-05T16:24:39;6.43;;;2.17;;
71125;SDS011;58785;55.566;38.058;2023-03-05T16:27:04;6.57;;;2.17;;
71125;SDS011;58785;55.566;38.058;2023-03-05T16:29:30;8.40;;;1.93;;
71125;SDS011;58785;55.566;38.058;2023-03-05T16:31:57;11.07;;;2.88;;